Time;durP1;ratioP1;P1;durP2;ratioP2;P2;SDS_P1;SDS_P2;PMS_P1;PMS_P2;Temp;Humidity;BMP_temperature;BMP_pressure;BME280_temperature;BME280_humidity;BME280_pressure;Samples;Min_cycle;Max_cycle;Signal;HPM_P1;HPM_P2
2023/08/02 00:01:48;;;;;;;15.68;14.50;;;14.90;99.90;;;;;;5044811;28;20044;-76
2023/08/02 00:04:15;;;;;;;16.65;15.35;;;14.90;99.90;;;;;;5053199;28;20040;-75
2023/08/02 00:06:42;;;;;;;16.05;14.85;;;14.90;99.90;;;;;;5046882;28;20059;-75
2023/08/02 00:09:10;;;;;;;16.65;15.07;;;14.90;99.90;;;;;;5034058;28;20632;-76
2023/08/02 00:11:37;;;;;;;17.00;15.30;;;14.90;99.90;;;;;;5032827;28;20049;-75
2023/08/02 00:14:04;;;;;;;15.85;14.75;;;14.90;99.90;;;;;;5050150;28;20628;-76
2023/08/02 00:16:31;;;;;;;16.45;15.27;;;14.90;99.90;;;;;;5049143;28;20117;-75
2023/08/02 00:18:57;;;;;;;16.45;15.25;;;14.90;99.90;;;;;;5037013;28;20131;-76
2023/08/02 00:21:24;;;;;;;16.38;14.98;;;14.80;99.90;;;;;;5057884;28;20110;-76
2023/08/02 00:23:51;;;;;;;16.13;14.90;;;14.80;99.90;;;;;;5055256;28;20152;-75
2023/08/02 00:26:18;;;;;;;16.20;14.85;;;14.80;99.90;;;;;;5054443;28;20049;-75
2023/08/02 00:28:45;;;;;;;15.55;14.45;;;14.70;99.90;;;;;;5050601;28;20102;-75
2023/08/02 00:31:12;;;;;;;15.88;14.77;;;14.70;99.90;;;;;;5039506;28;20037;-75
2023/08/02 00:33:40;;;;;;;16.17;15.00;;;14.60;99.90;;;;;;5049444;28;20117;-75
2023/08/02 00:36:08;;;;;;;16.70;15.30;;;14.50;99.90;;;;;;5047222;28;20060;-75
2023/08/02 00:38:34;;;;;;;17.77;15.95;;;14.50;99.90;;;;;;5033250;28;20045;-75
2023/08/02 00:41:04;;;;;;;16.30;15.13;;;14.50;99.90;;;;;;5046555;28;20167;-75
2023/08/02 00:43:38;;;;;;;17.00;15.43;;;14.40;99.90;;;;;;5043937;28;20115;-76
2023/08/02 00:46:06;;;;;;;16.23;14.90;;;14.40;99.90;;;;;;5047776;28;20049;-75
2023/08/02 00:48:34;;;;;;;15.15;14.07;;;14.30;99.90;;;;;;5037900;28;20060;-75
2023/08/02 00:51:02;;;;;;;16.23;14.98;;;14.20;99.90;;;;;;5029930;28;20033;-75
2023/08/02 00:53:29;;;;;;;16.02;14.63;;;14.10;99.90;;;;;;5048084;28;20677;-77
2023/08/02 00:55:57;;;;;;;18.75;14.43;;;14.00;99.90;;;;;;5046083;28;20037;-76
2023/08/02 00:58:24;;;;;;;17.52;14.32;;;13.90;99.90;;;;;;5050943;28;20043;-75
2023/08/02 01:00:50;;;;;;;14.95;13.70;;;13.90;99.90;;;;;;5029377;28;20551;-76
2023/08/02 01:03:18;;;;;;;15.27;13.20;;;13.80;99.90;;;;;;5051757;28;20128;-75
2023/08/02 01:05:58;;;;;;;14.30;13.13;;;13.80;99.90;;;;;;5050256;28;20512;-75
2023/08/02 01:08:31;;;;;;;15.70;14.13;;;13.80;99.90;;;;;;5050370;28;20083;-76
2023/08/02 01:11:10;;;;;;;14.30;13.00;;;13.80;99.90;;;;;;5045399;28;20044;-75
2023/08/02 01:13:42;;;;;;;14.00;12.93;;;13.70;99.90;;;;;;5047791;28;20069;-76
2023/08/02 01:16:10;;;;;;;14.52;13.23;;;13.70;99.90;;;;;;5053397;28;20144;-75
2023/08/02 01:18:37;;;;;;;15.57;13.88;;;13.70;99.90;;;;;;5049397;28;20079;-76
2023/08/02 01:21:04;;;;;;;13.93;12.75;;;13.70;99.90;;;;;;5048827;28;20102;-75
2023/08/02 01:23:31;;;;;;;15.68;14.15;;;13.70;99.90;;;;;;5048622;28;20392;-75
2023/08/02 01:25:59;;;;;;;15.60;14.30;;;13.60;99.90;;;;;;5049566;28;20098;-75
2023/08/02 01:28:32;;;;;;;14.75;13.52;;;13.60;99.90;;;;;;5066031;28;20037;-76
2023/08/02 01:31:00;;;;;;;16.02;14.23;;;13.60;99.90;;;;;;5045464;28;20041;-75
2023/08/02 01:33:28;;;;;;;14.50;13.18;;;13.60;99.90;;;;;;5049784;28;20049;-75
2023/08/02 01:35:54;;;;;;;14.65;13.13;;;13.50;99.90;;;;;;5048711;28;20270;-74
2023/08/02 01:38:21;;;;;;;17.17;12.98;;;13.50;99.90;;;;;;5051844;28;20060;-76
2023/08/02 01:40:48;;;;;;;18.30;13.30;;;13.50;99.90;;;;;;5045613;28;20057;-74
2023/08/02 01:43:16;;;;;;;20.42;13.93;;;13.50;99.90;;;;;;5051483;28;20052;-75
2023/08/02 01:45:42;;;;;;;14.02;12.88;;;13.50;99.90;;;;;;5048737;28;20053;-75
2023/08/02 01:48:09;;;;;;;13.38;12.13;;;13.40;99.90;;;;;;5047936;28;20055;-75
2023/08/02 01:50:37;;;;;;;13.70;12.38;;;13.40;99.90;;;;;;5035869;28;20048;-76
2023/08/02 01:53:04;;;;;;;15.13;11.07;;;13.40;99.90;;;;;;5048531;28;20095;-76
2023/08/02 01:55:30;;;;;;;16.00;12.10;;;13.40;99.90;;;;;;5053613;28;20044;-75
2023/08/02 01:57:57;;;;;;;14.18;12.43;;;13.40;99.90;;;;;;5051522;28;20513;-74
2023/08/02 02:00:24;;;;;;;13.18;11.45;;;13.40;99.90;;;;;;5036815;28;20032;-74
2023/08/02 02:02:51;;;;;;;15.38;12.55;;;13.50;99.90;;;;;;5049013;28;20592;-76
2023/08/02 02:05:17;;;;;;;14.18;11.57;;;13.50;99.90;;;;;;5036797;28;20056;-75
2023/08/02 02:07:45;;;;;;;16.00;12.57;;;13.40;99.90;;;;;;5051612;28;20055;-75
2023/08/02 02:10:12;;;;;;;13.85;11.90;;;13.50;99.90;;;;;;5014463;23;20936;-73
2023/08/02 02:12:39;;;;;;;13.25;11.85;;;13.50;99.90;;;;;;4990873;28;20086;-72
2023/08/02 02:15:06;;;;;;;15.65;12.40;;;13.50;99.90;;;;;;4990574;28;20047;-72
2023/08/02 02:17:33;;;;;;;17.92;12.65;;;13.50;99.90;;;;;;4986345;28;20513;-72
2023/08/02 02:20:01;;;;;;;15.05;12.20;;;13.50;99.90;;;;;;4987263;28;20461;-71
2023/08/02 02:22:28;;;;;;;18.05;12.02;;;13.50;99.90;;;;;;4995450;28;20041;-71
2023/08/02 02:24:54;;;;;;;15.57;11.75;;;13.60;99.90;;;;;;4990075;28;20038;-71
2023/08/02 02:27:21;;;;;;;13.88;12.48;;;13.60;99.90;;;;;;4990506;28;20095;-72
2023/08/02 02:29:48;;;;;;;14.13;12.57;;;13.60;99.90;;;;;;4997014;28;20149;-72
2023/08/02 02:32:15;;;;;;;13.95;12.52;;;13.60;99.90;;;;;;4987951;28;20105;-73
2023/08/02 02:34:43;;;;;;;14.10;12.75;;;13.60;99.90;;;;;;4991206;28;20053;-70
2023/08/02 02:37:09;;;;;;;12.90;11.90;;;13.50;99.90;;;;;;5001855;28;20046;-71
2023/08/02 02:39:37;;;;;;;13.13;11.98;;;13.50;99.90;;;;;;4991684;28;20442;-73
2023/08/02 02:42:03;;;;;;;14.57;11.80;;;13.50;99.90;;;;;;4983642;28;20097;-71
2023/08/02 02:44:43;;;;;;;23.42;12.18;;;13.50;99.90;;;;;;4988860;28;20050;-73
2023/08/02 02:47:10;;;;;;;15.20;11.63;;;13.40;99.90;;;;;;4989637;28;20050;-72
2023/08/02 02:49:38;;;;;;;12.55;11.25;;;13.40;99.90;;;;;;4993463;28;20132;-72
2023/08/02 02:52:05;;;;;;;12.93;11.80;;;13.40;99.90;;;;;;4977246;28;20139;-73
2023/08/02 02:54:31;;;;;;;14.18;12.70;;;13.40;99.90;;;;;;4999024;28;20665;-73
2023/08/02 02:56:59;;;;;;;18.55;14.13;;;13.40;99.90;;;;;;4990217;28;20049;-71
2023/08/02 02:59:27;;;;;;;15.02;13.30;;;13.40;99.90;;;;;;4990619;28;20045;-73
2023/08/02 03:01:54;;;;;;;14.70;13.30;;;13.40;99.90;;;;;;4994720;28;20052;-71
2023/08/02 03:04:21;;;;;;;15.68;14.10;;;13.30;99.90;;;;;;4996534;28;20041;-72
2023/08/02 03:06:48;;;;;;;15.18;13.90;;;13.30;99.90;;;;;;4993200;28;20157;-73
2023/08/02 03:09:15;;;;;;;17.67;14.52;;;13.20;99.90;;;;;;4989196;28;22129;-71
2023/08/02 03:11:41;;;;;;;17.98;14.43;;;13.10;99.90;;;;;;4986458;28;20078;-73
2023/08/02 03:14:08;;;;;;;19.05;14.70;;;13.00;99.90;;;;;;4989949;28;20104;-72
2023/08/02 03:16:35;;;;;;;15.60;14.02;;;13.10;99.90;;;;;;4995504;28;20049;-72
2023/08/02 03:19:03;;;;;;;18.83;14.32;;;13.00;99.90;;;;;;4992260;28;20096;-73
2023/08/02 03:21:30;;;;;;;14.57;13.07;;;13.10;99.90;;;;;;4995857;28;20073;-72
2023/08/02 03:23:57;;;;;;;14.02;12.70;;;13.10;99.90;;;;;;4993791;28;20463;-71
2023/08/02 03:26:24;;;;;;;14.30;12.93;;;13.00;99.90;;;;;;4975509;28;20819;-72
2023/08/02 03:28:51;;;;;;;15.65;13.75;;;13.00;99.90;;;;;;4973809;28;20738;-72
2023/08/02 03:31:17;;;;;;;17.33;14.95;;;12.90;99.90;;;;;;4990025;28;20080;-72
2023/08/02 03:33:44;;;;;;;16.02;14.52;;;12.80;99.90;;;;;;4973811;28;20511;-73
2023/08/02 03:36:11;;;;;;;17.75;15.40;;;12.90;99.90;;;;;;4971744;28;20050;-72
2023/08/02 03:38:38;;;;;;;23.10;16.27;;;12.80;99.90;;;;;;4990785;28;20060;-71
2023/08/02 03:41:04;;;;;;;19.73;15.63;;;12.80;99.90;;;;;;4985712;28;20169;-73
2023/08/02 03:43:31;;;;;;;22.65;16.00;;;12.80;99.90;;;;;;4999196;28;20045;-72
2023/08/02 03:45:58;;;;;;;16.30;14.70;;;12.80;99.90;;;;;;4994529;28;20115;-70
2023/08/02 03:48:28;;;;;;;23.85;15.18;;;12.70;99.90;;;;;;5001801;28;20076;-72
2023/08/02 03:50:56;;;;;;;16.13;13.88;;;12.60;99.90;;;;;;4994688;28;20549;-73
2023/08/02 03:53:29;;;;;;;16.00;14.30;;;12.50;99.90;;;;;;4996697;28;20121;-71
2023/08/02 03:55:56;;;;;;;17.90;14.93;;;12.30;99.90;;;;;;4990464;28;20049;-72
2023/08/02 03:58:22;;;;;;;17.77;15.15;;;12.30;99.90;;;;;;4989301;28;20052;-72
2023/08/02 04:00:50;;;;;;;20.23;15.63;;;12.50;99.90;;;;;;4990879;28;20061;-72
2023/08/02 04:03:17;;;;;;;17.73;15.45;;;12.40;99.90;;;;;;4989235;28;20042;-71
2023/08/02 04:05:44;;;;;;;17.55;15.70;;;12.30;99.90;;;;;;4989672;28;20334;-72
2023/08/02 04:08:10;;;;;;;18.52;15.45;;;12.30;99.90;;;;;;4988805;28;20439;-73
2023/08/02 04:10:37;;;;;;;19.08;16.15;;;12.30;99.90;;;;;;4987726;28;20061;-72
2023/08/02 04:13:04;;;;;;;20.95;15.30;;;12.30;99.90;;;;;;4991443;28;20046;-72
2023/08/02 04:15:32;;;;;;;21.52;16.02;;;12.20;99.90;;;;;;4990446;28;20057;-72
2023/08/02 04:17:59;;;;;;;20.27;14.68;;;12.20;99.90;;;;;;4989090;28;20640;-70
2023/08/02 04:20:27;;;;;;;19.42;15.23;;;12.20;99.90;;;;;;4993596;28;20185;-72
2023/08/02 04:22:54;;;;;;;17.40;14.90;;;12.20;99.90;;;;;;4993132;28;20590;-72
2023/08/02 04:25:20;;;;;;;17.77;16.00;;;12.30;99.90;;;;;;4984990;28;20062;-71
2023/08/02 04:27:47;;;;;;;16.27;14.63;;;12.30;99.90;;;;;;4967582;28;20119;-73
2023/08/02 04:30:14;;;;;;;18.45;16.42;;;12.40;99.90;;;;;;4988939;28;20081;-73
2023/08/02 04:32:41;;;;;;;17.58;15.23;;;12.50;99.90;;;;;;4990737;28;20034;-73
2023/08/02 04:35:08;;;;;;;20.42;16.02;;;12.60;99.90;;;;;;4996902;28;20048;-72
2023/08/02 04:37:35;;;;;;;16.90;14.52;;;12.40;99.90;;;;;;4995708;28;20046;-73
2023/08/02 04:40:03;;;;;;;15.63;14.20;;;12.60;99.90;;;;;;4997658;28;20588;-72
2023/08/02 04:42:30;;;;;;;20.10;14.13;;;12.40;99.90;;;;;;5006618;28;20102;-70
2023/08/02 04:44:57;;;;;;;19.73;15.75;;;12.50;99.90;;;;;;4995469;28;20030;-72
2023/08/02 04:47:24;;;;;;;15.38;13.68;;;12.50;99.90;;;;;;4993340;28;20192;-73
2023/08/02 04:49:50;;;;;;;19.25;14.60;;;12.70;99.90;;;;;;4988884;28;20042;-72
2023/08/02 04:52:17;;;;;;;16.17;13.35;;;12.80;99.90;;;;;;4990063;28;20049;-73
2023/08/02 04:54:44;;;;;;;14.63;11.77;;;12.70;99.90;;;;;;4995165;28;20136;-73
2023/08/02 04:57:11;;;;;;;11.27;10.27;;;12.80;99.90;;;;;;4995942;28;20093;-72
2023/08/02 04:59:37;;;;;;;11.25;9.88;;;12.90;99.90;;;;;;5001624;28;20602;-72
2023/08/02 05:02:04;;;;;;;9.55;8.65;;;13.10;99.90;;;;;;4994834;28;20070;-71
2023/08/02 05:04:31;;;;;;;8.90;8.00;;;13.20;99.90;;;;;;4996112;28;20038;-72
2023/08/02 05:06:58;;;;;;;9.73;6.82;;;13.40;99.90;;;;;;4997633;28;20038;-71
2023/08/02 05:09:25;;;;;;;8.75;7.22;;;13.50;99.90;;;;;;4992203;28;20053;-72
2023/08/02 05:11:51;;;;;;;10.32;7.60;;;13.70;99.90;;;;;;4999143;28;20054;-72
2023/08/02 05:14:18;;;;;;;9.13;7.78;;;13.80;99.90;;;;;;4996802;28;20054;-72
2023/08/02 05:16:45;;;;;;;10.05;8.25;;;13.90;99.90;;;;;;5008574;28;20102;-71
2023/08/02 05:19:12;;;;;;;9.98;8.85;;;14.10;99.90;;;;;;4995641;28;20115;-72
2023/08/02 05:21:38;;;;;;;9.98;9.18;;;14.20;99.90;;;;;;4994690;28;20104;-72
2023/08/02 05:24:06;;;;;;;11.30;10.23;;;14.20;99.90;;;;;;4991321;28;20038;-71
2023/08/02 05:26:33;;;;;;;10.90;10.07;;;14.40;99.90;;;;;;4996547;28;20734;-73
2023/08/02 05:28:59;;;;;;;11.35;10.65;;;14.40;99.90;;;;;;4990922;28;20127;-72
2023/08/02 05:31:26;;;;;;;12.60;11.57;;;14.60;99.90;;;;;;4995186;28;20053;-73
2023/08/02 05:33:53;;;;;;;13.50;12.50;;;14.70;99.90;;;;;;5002949;28;20156;-72
2023/08/02 05:36:20;;;;;;;13.45;12.25;;;14.60;99.90;;;;;;4991285;28;20128;-72
2023/08/02 05:38:47;;;;;;;12.50;11.63;;;14.60;99.90;;;;;;4992900;28;20582;-72
2023/08/02 05:41:13;;;;;;;11.45;10.60;;;14.50;99.90;;;;;;4973500;28;20437;-71
2023/08/02 05:43:44;;;;;;;12.45;11.52;;;14.50;99.90;;;;;;4996114;28;20042;-72
2023/08/02 05:46:11;;;;;;;15.07;11.80;;;14.50;99.90;;;;;;4986874;28;20783;-72
2023/08/02 05:48:38;;;;;;;13.43;12.15;;;14.50;99.90;;;;;;4996809;28;20041;-71
2023/08/02 05:51:05;;;;;;;12.98;11.88;;;14.50;99.90;;;;;;4996139;28;20079;-73
2023/08/02 05:53:32;;;;;;;11.60;10.75;;;14.40;99.90;;;;;;4996874;28;20571;-72
2023/08/02 05:55:58;;;;;;;11.68;10.55;;;14.40;99.90;;;;;;4990169;28;20042;-71
2023/08/02 05:58:25;;;;;;;11.57;10.50;;;14.50;99.90;;;;;;4993787;28;20054;-73
2023/08/02 06:00:52;;;;;;;11.00;10.35;;;14.60;99.90;;;;;;4994215;28;20054;-72
2023/08/02 06:03:18;;;;;;;12.45;11.02;;;14.70;99.90;;;;;;4991783;28;20516;-71
2023/08/02 06:05:47;;;;;;;11.85;10.90;;;14.80;99.90;;;;;;4994831;28;20125;-72
2023/08/02 06:08:14;;;;;;;12.85;11.85;;;14.90;99.90;;;;;;4989537;28;20046;-71
2023/08/02 06:10:41;;;;;;;14.20;12.73;;;14.90;99.90;;;;;;4991013;28;20123;-73
2023/08/02 06:13:08;;;;;;;14.38;13.18;;;15.10;99.90;;;;;;4998383;28;20056;-70
2023/08/02 06:15:35;;;;;;;16.25;14.57;;;15.30;99.90;;;;;;5003222;28;20042;-72
2023/08/02 06:18:02;;;;;;;15.43;14.50;;;15.50;99.90;;;;;;4996895;28;20050;-70
2023/08/02 06:20:29;;;;;;;15.32;14.23;;;15.60;99.90;;;;;;5004646;28;20076;-73
2023/08/02 06:22:55;;;;;;;16.10;15.07;;;15.70;99.90;;;;;;4997095;28;20061;-73
2023/08/02 06:25:22;;;;;;;17.58;16.05;;;15.80;99.90;;;;;;4993782;28;20046;-74
2023/08/02 06:28:07;;;;;;;16.45;15.45;;;16.00;99.90;;;;;;4997268;28;20041;-75
2023/08/02 06:30:34;;;;;;;16.48;15.57;;;16.00;99.90;;;;;;4992667;28;20046;-73
2023/08/02 06:33:01;;;;;;;17.15;15.85;;;16.20;99.90;;;;;;4992152;28;20046;-71
2023/08/02 06:35:28;;;;;;;16.30;15.10;;;16.30;99.90;;;;;;4990107;28;21554;-73
2023/08/02 06:37:54;;;;;;;15.88;14.93;;;16.30;99.90;;;;;;4989915;28;20041;-71
2023/08/02 06:40:21;;;;;;;16.13;15.05;;;16.10;99.90;;;;;;4990300;28;20050;-71
2023/08/02 06:42:48;;;;;;;16.67;15.43;;;16.10;99.90;;;;;;4997059;28;20038;-73
2023/08/02 06:45:14;;;;;;;16.38;15.52;;;16.10;99.90;;;;;;4990363;28;20046;-72
2023/08/02 06:47:41;;;;;;;15.48;14.38;;;16.00;99.90;;;;;;4995427;28;20054;-71
2023/08/02 06:50:08;;;;;;;15.82;14.73;;;16.00;99.90;;;;;;4993860;28;20136;-72
2023/08/02 06:52:35;;;;;;;15.25;14.30;;;15.90;99.90;;;;;;4973408;28;21006;-73
2023/08/02 06:55:02;;;;;;;15.32;14.18;;;16.00;99.90;;;;;;4985085;28;20042;-72
2023/08/02 06:57:31;;;;;;;15.82;14.60;;;15.90;99.90;;;;;;5003866;28;20037;-71
2023/08/02 06:59:57;;;;;;;15.40;14.10;;;15.90;99.90;;;;;;4994531;28;20412;-72
2023/08/02 07:02:24;;;;;;;15.98;14.73;;;16.10;99.90;;;;;;4989429;28;20110;-73
2023/08/02 07:04:51;;;;;;;15.98;15.07;;;16.40;99.90;;;;;;4997506;28;20077;-73
2023/08/02 07:07:18;;;;;;;16.13;15.02;;;16.70;99.90;;;;;;4993287;28;20045;-74
2023/08/02 07:09:49;;;;;;;15.73;14.65;;;16.60;99.90;;;;;;4990294;28;20907;-73
2023/08/02 07:12:16;;;;;;;15.38;14.43;;;16.70;99.90;;;;;;4992496;28;20044;-73
2023/08/02 07:14:43;;;;;;;15.02;14.13;;;16.70;99.90;;;;;;4994315;28;20049;-74
2023/08/02 07:17:10;;;;;;;15.43;14.15;;;16.60;99.90;;;;;;4998413;28;20649;-73
2023/08/02 07:19:37;;;;;;;15.10;14.20;;;16.60;99.90;;;;;;4993953;28;20050;-74
2023/08/02 07:22:04;;;;;;;14.90;13.90;;;16.60;99.90;;;;;;4997366;28;20594;-74
2023/08/02 07:24:31;;;;;;;15.80;14.40;;;16.50;99.90;;;;;;4992045;28;20061;-74
2023/08/02 07:26:57;;;;;;;15.20;14.20;;;16.50;99.90;;;;;;4990581;28;20030;-73
2023/08/02 07:29:24;;;;;;;14.38;13.40;;;16.60;99.90;;;;;;4984851;28;20058;-75
2023/08/02 07:31:51;;;;;;;15.52;14.43;;;16.60;99.90;;;;;;4999101;28;20050;-74
2023/08/02 07:34:18;;;;;;;16.40;15.38;;;16.70;99.90;;;;;;4990499;28;20054;-74
2023/08/02 07:36:45;;;;;;;16.63;15.52;;;16.70;99.90;;;;;;4995473;28;20069;-75
2023/08/02 07:39:12;;;;;;;15.88;14.90;;;16.70;99.90;;;;;;4996312;28;20087;-74
2023/08/02 07:41:41;;;;;;;16.33;15.18;;;16.60;99.90;;;;;;4986209;28;20065;-72
2023/08/02 07:44:09;;;;;;;17.48;16.48;;;16.60;99.90;;;;;;4993835;28;20042;-74
2023/08/02 07:46:36;;;;;;;17.13;15.93;;;16.60;99.90;;;;;;4991590;28;20037;-73
2023/08/02 07:49:04;;;;;;;17.58;16.05;;;16.70;99.90;;;;;;4993848;28;20142;-73
2023/08/02 07:51:30;;;;;;;16.25;15.05;;;16.70;99.90;;;;;;4990542;28;20053;-73
2023/08/02 07:53:57;;;;;;;16.27;14.93;;;16.60;99.90;;;;;;4994794;28;20190;-74
2023/08/02 07:56:24;;;;;;;15.27;14.27;;;16.60;99.90;;;;;;4992932;28;20412;-73
2023/08/02 07:58:51;;;;;;;14.90;13.48;;;16.50;99.90;;;;;;4991210;28;20041;-74
2023/08/02 08:01:18;;;;;;;12.55;11.55;;;16.30;99.90;;;;;;4997088;28;20062;-73
2023/08/02 08:03:45;;;;;;;11.55;10.75;;;16.20;99.90;;;;;;4993704;28;20035;-74
2023/08/02 08:06:13;;;;;;;11.07;10.27;;;16.00;99.90;;;;;;4992867;28;20934;-74
2023/08/02 08:08:42;;;;;;;9.07;8.25;;;15.80;99.90;;;;;;4973905;28;20057;-74
2023/08/02 08:11:09;;;;;;;10.68;7.88;;;15.70;99.90;;;;;;4992092;28;20582;-75
2023/08/02 08:13:36;;;;;;;8.07;7.18;;;15.60;99.90;;;;;;4977525;28;20799;-73
2023/08/02 08:16:03;;;;;;;8.85;7.28;;;15.50;99.90;;;;;;5003851;28;20124;-75
2023/08/02 08:18:31;;;;;;;8.35;7.05;;;15.60;99.90;;;;;;4997338;28;20138;-74
2023/08/02 08:21:04;;;;;;;10.38;7.32;;;15.50;99.90;;;;;;4995087;28;20129;-74
2023/08/02 08:23:33;;;;;;;11.15;7.03;;;15.50;99.90;;;;;;4990434;28;20559;-76
2023/08/02 08:26:00;;;;;;;11.65;7.70;;;15.50;99.90;;;;;;4983011;28;20120;-74
2023/08/02 08:28:26;;;;;;;10.48;6.90;;;15.50;99.90;;;;;;4994753;28;20061;-75
2023/08/02 08:31:04;;;;;;;11.77;7.70;;;15.40;99.90;;;;;;4995400;28;20054;-74
2023/08/02 08:33:31;;;;;;;9.50;7.32;;;15.50;99.90;;;;;;4996998;28;20038;-74
2023/08/02 08:35:58;;;;;;;7.97;7.03;;;15.40;99.90;;;;;;4980170;28;20045;-74
2023/08/02 08:38:26;;;;;;;9.70;7.30;;;15.40;99.90;;;;;;4974113;28;20061;-74
2023/08/02 08:40:54;;;;;;;9.40;6.93;;;15.50;99.90;;;;;;4983677;28;20034;-74
2023/08/02 08:43:25;;;;;;;8.05;6.90;;;15.50;99.90;;;;;;4998378;28;20314;-72
2023/08/02 08:45:53;;;;;;;8.25;7.18;;;15.50;99.90;;;;;;4991459;28;20033;-74
2023/08/02 08:48:21;;;;;;;8.70;7.78;;;15.60;99.90;;;;;;5002535;28;20488;-74
2023/08/02 08:50:50;;;;;;;8.35;7.50;;;15.60;99.90;;;;;;4995207;28;20042;-74
2023/08/02 08:53:28;;;;;;;13.13;8.60;;;15.70;99.90;;;;;;4993508;28;20138;-73
2023/08/02 08:55:56;;;;;;;14.48;8.88;;;15.70;99.90;;;;;;4999219;28;20041;-72
2023/08/02 08:58:23;;;;;;;13.20;8.88;;;15.70;99.90;;;;;;4992424;28;20127;-73
2023/08/02 09:00:53;;;;;;;11.70;8.75;;;15.80;99.90;;;;;;4993418;28;20061;-73
2023/08/02 09:03:20;;;;;;;12.25;8.98;;;15.80;99.90;;;;;;5000442;28;20041;-73
2023/08/02 09:05:48;;;;;;;9.70;8.60;;;15.80;99.90;;;;;;4999789;28;20053;-72
2023/08/02 09:08:15;;;;;;;14.35;8.63;;;15.90;99.90;;;;;;4992950;28;20411;-73
2023/08/02 09:10:42;;;;;;;9.52;8.55;;;15.90;99.90;;;;;;4988751;28;20058;-74
2023/08/02 09:13:25;;;;;;;12.30;8.30;;;15.90;99.90;;;;;;5001086;28;20046;-73
2023/08/02 09:16:12;;;;;;;14.32;8.55;;;15.90;99.90;;;;;;4975873;28;20045;-73
2023/08/02 09:18:44;;;;;;;9.38;7.47;;;15.80;99.90;;;;;;4995017;28;20149;-72
2023/08/02 09:21:19;;;;;;;10.88;7.43;;;15.80;99.90;;;;;;4995284;28;20054;-73
2023/08/02 09:23:57;;;;;;;14.45;10.10;;;15.70;99.90;;;;;;4989301;28;20057;-73
2023/08/02 09:26:24;;;;;;;14.18;8.57;;;15.80;99.90;;;;;;4990861;28;20049;-73
2023/08/02 09:29:06;;;;;;;12.43;9.25;;;15.80;99.90;;;;;;4999760;28;20060;-73
2023/08/02 09:31:34;;;;;;;10.85;9.05;;;15.80;99.90;;;;;;4992683;28;20066;-72
2023/08/02 09:34:03;;;;;;;11.57;9.45;;;15.80;99.90;;;;;;5001478;28;20117;-74
2023/08/02 09:36:35;;;;;;;12.63;7.60;;;15.80;99.90;;;;;;4992956;28;20042;-73
2023/08/02 09:39:09;;;;;;;9.63;7.55;;;15.70;99.90;;;;;;4991543;28;20042;-73
2023/08/02 09:41:37;;;;;;;8.95;7.93;;;15.70;99.90;;;;;;5006437;28;20042;-73
2023/08/02 09:44:07;;;;;;;10.23;7.75;;;15.80;99.90;;;;;;4998376;28;20133;-73
2023/08/02 09:46:36;;;;;;;10.48;7.22;;;15.90;99.90;;;;;;4994175;28;20041;-74
2023/08/02 09:49:17;;;;;;;9.38;7.65;;;15.80;99.90;;;;;;4988105;28;20041;-73
2023/08/02 09:51:45;;;;;;;12.23;7.03;;;15.90;99.90;;;;;;4993437;28;20044;-73
2023/08/02 09:54:13;;;;;;;10.57;7.60;;;15.90;99.90;;;;;;4998614;28;20053;-73
2023/08/02 09:56:42;;;;;;;9.70;6.93;;;16.00;99.90;;;;;;4993404;28;20115;-74
2023/08/02 09:59:09;;;;;;;10.40;7.20;;;15.90;99.90;;;;;;5001009;28;20042;-73
2023/08/02 10:01:36;;;;;;;10.52;8.18;;;15.90;99.90;;;;;;4986409;28;20751;-72
2023/08/02 10:04:06;;;;;;;7.53;6.38;;;15.90;99.90;;;;;;4980562;28;20132;-73
2023/08/02 10:06:55;;;;;;;10.02;5.97;;;15.80;99.90;;;;;;4996763;28;20049;-75
2023/08/02 10:09:30;;;;;;;8.57;6.38;;;15.90;99.90;;;;;;4971550;28;20049;-73
2023/08/02 10:12:13;;;;;;;12.60;7.38;;;15.90;99.90;;;;;;4986832;28;20045;-75
2023/08/02 10:14:41;;;;;;;6.32;5.70;;;15.90;99.90;;;;;;4993976;28;20588;-72
2023/08/02 10:17:10;;;;;;;5.47;4.88;;;15.90;99.90;;;;;;4991755;28;20050;-73
2023/08/02 10:19:38;;;;;;;4.80;4.38;;;15.90;99.90;;;;;;5002976;28;20049;-73
2023/08/02 10:22:05;;;;;;;6.38;4.47;;;15.90;99.90;;;;;;4997022;28;20100;-74
2023/08/02 10:24:32;;;;;;;4.70;3.70;;;16.00;99.90;;;;;;4988915;28;20111;-72
2023/08/02 10:27:03;;;;;;;5.85;3.63;;;16.00;99.90;;;;;;4992944;28;20108;-73
2023/08/02 10:29:33;;;;;;;4.10;3.35;;;16.00;99.90;;;;;;4994224;28;20077;-73
2023/08/02 10:32:17;;;;;;;11.88;3.80;;;16.10;99.90;;;;;;4977095;28;20058;-73
2023/08/02 10:34:47;;;;;;;3.55;3.15;;;16.20;99.90;;;;;;4990526;28;20551;-73
2023/08/02 10:37:15;;;;;;;2.67;2.42;;;16.30;99.90;;;;;;4997377;28;20085;-73
2023/08/02 10:39:47;;;;;;;3.85;3.55;;;16.40;99.90;;;;;;4992070;28;20518;-74
2023/08/02 10:42:19;;;;;;;2.70;2.50;;;16.60;99.90;;;;;;4993281;28;20038;-73
2023/08/02 10:44:54;;;;;;;2.88;2.67;;;16.80;99.90;;;;;;4994874;28;20119;-73
2023/08/02 10:47:28;;;;;;;4.72;4.43;;;17.20;99.90;;;;;;4990639;28;20791;-74
2023/08/02 10:49:57;;;;;;;3.20;3.03;;;17.40;99.90;;;;;;4972803;28;20144;-75
2023/08/02 10:52:31;;;;;;;4.28;4.07;;;17.50;99.90;;;;;;4983655;28;20038;-75
2023/08/02 10:55:08;;;;;;;7.55;5.90;;;17.50;99.90;;;;;;4995732;28;20046;-73
2023/08/02 10:57:36;;;;;;;5.90;5.50;;;17.50;99.90;;;;;;4989498;28;20107;-75
2023/08/02 11:00:18;;;;;;;4.55;4.35;;;17.50;99.90;;;;;;5006816;28;20058;-74
2023/08/02 11:02:49;;;;;;;5.28;4.97;;;17.50;99.90;;;;;;4992737;28;20125;-73
2023/08/02 11:05:39;;;;;;;5.82;5.63;;;17.50;99.90;;;;;;4976280;28;20050;-74
2023/08/02 11:08:09;;;;;;;6.00;5.80;;;17.50;99.90;;;;;;4993212;28;20037;-73
2023/08/02 11:10:54;;;;;;;7.95;7.65;;;17.70;99.90;;;;;;4984880;28;20073;-73
2023/08/02 11:13:22;;;;;;;7.60;7.30;;;17.70;99.90;;;;;;4996329;28;20045;-74
2023/08/02 11:16:03;;;;;;;7.68;7.22;;;17.80;99.90;;;;;;4986733;28;20042;-75
2023/08/02 11:18:31;;;;;;;5.82;5.57;;;17.80;99.90;;;;;;4975030;28;20073;-73
2023/08/02 11:21:09;;;;;;;7.85;7.45;;;17.90;99.90;;;;;;4999493;28;20060;-74
2023/08/02 11:23:35;;;;;;;9.13;8.73;;;17.90;99.90;;;;;;4991666;28;20059;-74
2023/08/02 11:26:10;;;;;;;8.23;7.82;;;17.80;99.90;;;;;;4995934;28;20656;-74
2023/08/02 11:28:45;;;;;;;8.20;7.90;;;17.70;99.90;;;;;;4992560;28;20161;-75
2023/08/02 11:31:12;;;;;;;8.02;7.72;;;17.80;99.90;;;;;;4979068;28;20049;-73
2023/08/02 11:33:40;;;;;;;8.77;8.38;;;17.60;99.90;;;;;;4991772;28;20053;-72
2023/08/02 11:36:07;;;;;;;8.48;8.18;;;17.60;99.90;;;;;;4998064;28;20069;-73
2023/08/02 11:38:36;;;;;;;7.95;7.65;;;17.60;99.90;;;;;;4991305;28;20712;-73
2023/08/02 11:41:14;;;;;;;8.55;7.97;;;17.70;99.90;;;;;;4980807;28;20069;-73
2023/08/02 11:43:42;;;;;;;7.95;7.65;;;17.80;99.90;;;;;;4990193;28;20112;-75
2023/08/02 11:46:21;;;;;;;8.68;8.38;;;17.80;99.90;;;;;;4993218;28;20471;-75
2023/08/02 11:48:49;;;;;;;9.10;8.73;;;17.90;99.90;;;;;;4988643;28;20338;-75
2023/08/02 11:51:19;;;;;;;8.63;8.32;;;17.80;99.90;;;;;;4999348;28;20147;-74
2023/08/02 11:53:48;;;;;;;8.23;7.93;;;17.90;99.90;;;;;;4997055;28;20056;-75
2023/08/02 11:56:16;;;;;;;9.10;8.80;;;17.90;99.90;;;;;;4992214;28;20120;-75
2023/08/02 11:58:44;;;;;;;8.55;8.25;;;17.90;99.90;;;;;;4990314;28;20096;-74
2023/08/02 12:01:12;;;;;;;9.65;9.07;;;17.90;99.90;;;;;;4994706;28;20042;-74
2023/08/02 12:03:51;;;;;;;9.75;9.35;;;17.90;99.90;;;;;;4987930;28;20412;-76
2023/08/02 12:06:18;;;;;;;9.98;9.68;;;17.90;99.90;;;;;;4988469;28;20047;-74
2023/08/02 12:09:00;;;;;;;10.10;9.60;;;18.00;99.90;;;;;;4981577;28;20061;-72
2023/08/02 12:11:29;;;;;;;9.40;9.10;;;18.00;99.90;;;;;;4990140;28;20046;-73
2023/08/02 12:13:58;;;;;;;9.75;9.35;;;17.80;99.90;;;;;;4991483;28;20152;-74
2023/08/02 12:16:24;;;;;;;10.60;10.20;;;17.80;99.90;;;;;;5000696;28;20042;-73
2023/08/02 12:18:56;;;;;;;10.00;9.60;;;17.80;99.90;;;;;;4995118;28;20120;-74
2023/08/02 12:21:24;;;;;;;9.60;9.20;;;17.80;99.90;;;;;;4997516;28;20034;-74
2023/08/02 12:23:52;;;;;;;8.48;8.18;;;17.80;99.90;;;;;;4984966;28;20053;-74
2023/08/02 12:26:35;;;;;;;8.90;8.60;;;17.70;99.90;;;;;;4992820;28;20053;-75
2023/08/02 12:29:03;;;;;;;7.85;7.55;;;17.80;99.90;;;;;;4995084;28;20049;-73
2023/08/02 12:31:41;;;;;;;6.20;5.80;;;17.80;99.90;;;;;;4983652;28;20064;-73
2023/08/02 12:34:09;;;;;;;5.07;4.80;;;17.80;99.90;;;;;;5004283;28;20058;-74
2023/08/02 12:36:37;;;;;;;4.85;4.43;;;17.90;99.90;;;;;;4992837;28;20053;-72
2023/08/02 12:39:04;;;;;;;4.07;3.97;;;17.80;99.90;;;;;;4994446;28;20054;-74
2023/08/02 12:41:31;;;;;;;3.88;3.72;;;17.70;99.90;;;;;;4990685;28;20058;-74